KCNO/CNO METAR and TAF weather

Enter ICAO airport designator
Station Type Date Time Source
KCNO METAR 2020/01/18 21:53 UTC NOAA

KCNO 182153Z VRB03KT 10SM CLR 22/M01 A3014 RMK AO2 SLP206 T02221006


Station Type Date Time Source
KCNO Decoded METAR 2020/01/18 21:53 UTC NOAA

CHINO AIRPORT, CA, United States (KCNO) 33-58N 117-38W 207M
Jan 18, 2020 - 04:53 PM EST / 2020.01.18 2153 UTC
Wind: Variable at 3 MPH (3 KT):0
Visibility: 10 mile(s):0
Sky conditions: clear
Temperature: 72.0 F (22.2 C)
Dew Point: 30.9 F (-0.6 C)
Relative Humidity: 21%
Pressure (altimeter): 30.14 in. Hg (1020 hPa)
ob: KCNO 182153Z VRB03KT 10SM CLR 22/M01 A3014 RMK AO2 SLP206 T02221006
cycle: 22

Station Type Date Time Source
KCNO TAF UTC NOAA

Error!

Example: see airport list